createdAt,value
2018-09-17T00:01:28.071Z,8.67
2018-09-17T00:03:55.090Z,8.00
2018-09-17T00:06:22.127Z,8.50
2018-09-17T00:11:27.672Z,8.38
2018-09-17T00:13:54.653Z,8.60
2018-09-17T00:16:21.658Z,7.60
2018-09-17T00:18:49.760Z,7.57
2018-09-17T00:21:16.781Z,7.63
2018-09-17T00:23:43.786Z,8.27
2018-09-17T00:26:10.829Z,8.10
2018-09-17T00:28:37.833Z,7.93
2018-09-17T00:31:04.841Z,8.37
2018-09-17T00:33:31.878Z,8.17
2018-09-17T00:35:58.885Z,8.37
2018-09-17T00:38:25.883Z,8.57
2018-09-17T00:40:52.945Z,8.07
2018-09-17T00:43:20.901Z,8.20
2018-09-17T00:45:48.022Z,7.83
2018-09-17T00:48:15.048Z,8.10
2018-09-17T00:50:42.049Z,7.37
2018-09-17T00:53:09.953Z,7.83
2018-09-17T00:55:37.010Z,8.23
2018-09-17T00:58:04.015Z,8.27
2018-09-17T01:00:31.013Z,8.23
2018-09-17T01:02:58.059Z,7.93
2018-09-17T01:05:25.061Z,7.50
2018-09-17T01:07:52.079Z,7.67
2018-09-17T01:10:19.198Z,7.50
2018-09-17T01:12:46.187Z,7.77
2018-09-17T01:15:13.185Z,7.77
2018-09-17T01:17:40.225Z,8.10
2018-09-17T01:20:07.223Z,8.60
2018-09-17T01:22:34.236Z,7.87
2018-09-17T01:25:01.287Z,7.77
2018-09-17T01:27:31.170Z,7.50
2018-09-17T01:32:33.179Z,8.55
2018-09-17T01:35:00.178Z,8.40
2018-09-17T01:37:27.185Z,8.13
2018-09-17T01:39:54.226Z,8.03
2018-09-17T01:42:21.306Z,9.30
2018-09-17T01:44:48.308Z,8.00
2018-09-17T01:47:16.145Z,8.90
2018-09-17T01:49:43.149Z,8.33
2018-09-17T01:52:10.184Z,8.83
2018-09-17T01:54:37.210Z,8.40
2018-09-17T01:57:04.213Z,7.83
2018-09-17T01:59:31.212Z,8.47
2018-09-17T02:01:59.214Z,8.67
2018-09-17T02:04:26.219Z,8.00
2018-09-17T02:06:53.220Z,8.73
2018-09-17T02:09:20.258Z,8.23
2018-09-17T02:11:47.262Z,7.87
2018-09-17T02:14:15.145Z,8.07
2018-09-17T02:16:42.948Z,8.70
2018-09-17T02:19:10.434Z,8.33
2018-09-17T02:21:37.405Z,8.73
2018-09-17T02:24:04.428Z,9.33
2018-09-17T02:26:31.510Z,8.00
2018-09-17T02:28:58.539Z,8.90
2018-09-17T02:31:25.562Z,8.73
2018-09-17T02:33:52.570Z,9.13
2018-09-17T02:36:19.587Z,9.17
2018-09-17T02:38:46.632Z,9.40
2018-09-17T02:43:54.170Z,9.70
2018-09-17T02:46:22.116Z,8.90
2018-09-17T02:48:49.115Z,8.57
2018-09-17T02:51:16.166Z,8.60
2018-09-17T02:53:43.216Z,9.03
2018-09-17T02:56:10.180Z,8.67
2018-09-17T02:58:38.136Z,10.23
2018-09-17T03:01:06.018Z,8.70
2018-09-17T03:03:32.971Z,9.27
2018-09-17T03:06:00.016Z,9.27
2018-09-17T03:08:27.009Z,7.90
2018-09-17T03:10:54.000Z,9.33
2018-09-17T03:13:21.038Z,9.37
2018-09-17T03:15:49.051Z,9.03
2018-09-17T03:18:16.052Z,9.03
2018-09-17T03:20:44.044Z,9.93
2018-09-17T03:23:11.060Z,9.90
2018-09-17T03:25:38.072Z,10.13
2018-09-17T03:28:06.059Z,9.93
2018-09-17T03:30:33.074Z,10.17
2018-09-17T03:33:00.078Z,9.43
2018-09-17T03:35:27.121Z,10.27
2018-09-17T03:40:32.646Z,10.15
2018-09-17T03:42:59.643Z,9.37
2018-09-17T03:45:27.403Z,8.50
2018-09-17T03:47:54.459Z,9.53
2018-09-17T03:50:21.535Z,8.83
2018-09-17T03:52:48.535Z,8.47
2018-09-17T03:55:15.589Z,9.00
2018-09-17T03:57:42.598Z,8.77
2018-09-17T04:00:09.596Z,8.47
2018-09-17T04:02:37.581Z,8.60
2018-09-17T04:05:04.580Z,8.37
2018-09-17T04:07:31.602Z,8.93
2018-09-17T04:09:58.656Z,9.70
2018-09-17T04:12:25.647Z,8.80
2018-09-17T04:14:52.735Z,9.87
2018-09-17T04:17:19.775Z,10.00
2018-09-17T04:19:46.793Z,10.00
2018-09-17T04:22:13.787Z,8.83
2018-09-17T04:24:40.835Z,9.63
2018-09-17T04:27:07.837Z,9.77
2018-09-17T04:29:34.837Z,9.33
2018-09-17T04:32:02.599Z,9.73
2018-09-17T04:34:30.477Z,8.17
2018-09-17T04:36:57.503Z,7.53
2018-09-17T04:39:24.554Z,7.57
2018-09-17T04:41:51.569Z,7.67
2018-09-17T04:44:18.580Z,8.37
2018-09-17T04:46:46.431Z,8.30
2018-09-17T04:49:13.421Z,8.10
2018-09-17T04:51:40.415Z,8.00
2018-09-17T04:54:07.474Z,9.30
2018-09-17T04:59:12.968Z,10.27
2018-09-17T05:01:39.987Z,9.43
2018-09-17T05:04:06.977Z,8.33
2018-09-17T05:06:34.008Z,8.90
2018-09-17T05:09:01.002Z,9.30
2018-09-17T05:11:27.991Z,9.17
2018-09-17T05:13:55.012Z,9.13
2018-09-17T05:16:22.858Z,9.90
2018-09-17T05:18:50.263Z,8.47
2018-09-17T05:21:17.282Z,8.37
2018-09-17T05:23:44.271Z,9.13
2018-09-17T05:26:11.294Z,8.70
2018-09-17T05:28:38.317Z,9.10
2018-09-17T05:31:05.311Z,9.07
2018-09-17T05:33:32.325Z,8.80
2018-09-17T05:35:59.356Z,8.90
2018-09-17T05:38:26.352Z,8.27
2018-09-17T05:40:53.366Z,8.97
2018-09-17T05:43:20.454Z,8.43
2018-09-17T05:45:47.460Z,7.80
2018-09-17T05:48:14.552Z,8.60
2018-09-17T05:50:41.658Z,8.50
2018-09-17T05:53:08.664Z,7.83
2018-09-17T05:55:35.679Z,8.23
2018-09-17T05:58:02.697Z,7.70
2018-09-17T06:00:29.697Z,7.90
2018-09-17T06:02:56.695Z,7.73
2018-09-17T06:05:23.780Z,8.00
2018-09-17T06:07:50.805Z,8.00
2018-09-17T06:10:17.798Z,7.90
2018-09-17T06:12:44.834Z,8.23
2018-09-17T06:15:11.819Z,8.27
2018-09-17T06:17:38.812Z,8.83
2018-09-17T06:20:05.833Z,8.80
2018-09-17T06:25:08.365Z,9.27
2018-09-17T06:27:35.366Z,9.10
2018-09-17T06:30:02.378Z,9.50
2018-09-17T06:32:29.424Z,8.80
2018-09-17T06:34:56.510Z,8.70
2018-09-17T06:37:23.515Z,8.27
2018-09-17T06:39:50.546Z,8.70
2018-09-17T06:42:18.493Z,9.07
2018-09-17T06:44:45.498Z,9.13
2018-09-17T06:47:12.729Z,8.70
2018-09-17T06:49:40.555Z,8.80
2018-09-17T06:52:08.464Z,8.70
2018-09-17T06:54:35.584Z,8.30
2018-09-17T06:57:02.596Z,8.27
2018-09-17T06:59:29.603Z,7.77
2018-09-17T07:01:56.741Z,8.60
2018-09-17T07:04:24.645Z,7.90
2018-09-17T07:06:51.668Z,8.40
2018-09-17T07:09:18.712Z,9.07
2018-09-17T07:11:45.729Z,9.00
2018-09-17T07:16:51.887Z,10.70
2018-09-17T07:19:19.846Z,9.43
2018-09-17T07:21:46.844Z,9.43
2018-09-17T07:24:13.948Z,9.00
2018-09-17T07:26:40.976Z,8.80
2018-09-17T07:29:07.965Z,7.63
2018-09-17T07:31:34.989Z,7.70
2018-09-17T07:34:01.988Z,7.50
2018-09-17T07:36:29.045Z,7.57
2018-09-17T07:38:56.058Z,7.23
2018-09-17T07:41:24.019Z,7.13
2018-09-17T07:43:51.941Z,7.20
2018-09-17T07:46:18.992Z,7.50
2018-09-17T07:48:45.987Z,6.30
2018-09-17T07:51:13.988Z,7.33
2018-09-17T07:53:41.049Z,6.83
2018-09-17T07:56:08.049Z,6.83
2018-09-17T07:58:35.826Z,6.60
2018-09-17T08:01:02.856Z,7.63
2018-09-17T08:03:29.849Z,6.93
2018-09-17T08:05:56.844Z,7.53
2018-09-17T08:08:23.884Z,7.10
2018-09-17T08:10:50.957Z,7.07
2018-09-17T08:13:17.977Z,6.77
2018-09-17T08:15:45.000Z,6.70
2018-09-17T08:18:11.993Z,6.70
2018-09-17T08:20:38.997Z,7.10
2018-09-17T08:23:06.011Z,6.57
2018-09-17T08:25:33.078Z,7.00
2018-09-17T08:28:00.038Z,6.77
2018-09-17T08:30:27.879Z,6.33
2018-09-17T08:35:34.372Z,7.22
2018-09-17T08:38:01.374Z,6.50
2018-09-17T08:40:28.381Z,6.33
2018-09-17T08:42:55.403Z,6.60
2018-09-17T08:45:22.404Z,6.33
2018-09-17T08:47:49.409Z,5.97
2018-09-17T08:50:16.447Z,6.17
2018-09-17T08:52:43.480Z,6.00
2018-09-17T08:55:10.452Z,5.93
2018-09-17T08:57:38.420Z,6.13
2018-09-17T09:00:05.436Z,5.87
2018-09-17T09:02:33.259Z,5.60
2018-09-17T09:05:00.312Z,5.43
2018-09-17T09:07:27.300Z,5.93
2018-09-17T09:09:54.316Z,5.83
2018-09-17T09:12:21.349Z,4.83
2018-09-17T09:14:48.341Z,5.13
2018-09-17T09:17:15.353Z,5.20
2018-09-17T09:19:42.402Z,4.47
2018-09-17T09:22:09.413Z,5.13
2018-09-17T09:24:36.428Z,5.83
2018-09-17T09:27:03.461Z,4.93
2018-09-17T09:29:31.270Z,4.97
2018-09-17T09:31:58.263Z,4.93
2018-09-17T09:34:25.299Z,4.80
2018-09-17T09:36:52.302Z,5.00
2018-09-17T09:39:20.019Z,4.73
2018-09-17T09:41:47.068Z,5.13
2018-09-17T09:44:14.068Z,4.60
2018-09-17T09:49:20.554Z,5.30
2018-09-17T09:51:47.555Z,5.40
2018-09-17T09:54:15.495Z,5.47
2018-09-17T09:59:21.434Z,5.60
2018-09-17T10:04:26.561Z,5.90
2018-09-17T10:06:53.670Z,5.57
2018-09-17T10:09:20.660Z,5.20
2018-09-17T10:11:47.654Z,6.17
2018-09-17T10:14:15.505Z,5.23
2018-09-17T10:19:21.518Z,5.77
2018-09-17T10:21:48.457Z,5.43
2018-09-17T10:24:15.447Z,5.10
2018-09-17T10:29:21.383Z,5.57
2018-09-17T10:31:48.522Z,6.17
2018-09-17T10:34:15.518Z,5.87
2018-09-17T10:36:43.332Z,5.33
2018-09-17T10:39:10.413Z,5.60
2018-09-17T10:41:37.405Z,5.43
2018-09-17T10:44:04.397Z,5.40
2018-09-17T10:46:32.266Z,5.83
2018-09-17T10:48:59.277Z,6.20
2018-09-17T10:51:26.625Z,5.90
2018-09-17T10:53:53.688Z,7.03
2018-09-17T10:56:20.674Z,6.43
2018-09-17T10:58:47.674Z,6.67
2018-09-17T11:01:14.706Z,5.93
2018-09-17T11:03:41.701Z,6.47
2018-09-17T11:06:08.700Z,6.30
2018-09-17T11:08:35.717Z,6.40
2018-09-17T11:11:02.721Z,6.73
2018-09-17T11:13:29.704Z,6.20
2018-09-17T11:15:56.738Z,6.83
2018-09-17T11:18:23.739Z,6.90
2018-09-17T11:20:51.567Z,6.97
2018-09-17T11:23:18.574Z,5.67
2018-09-17T11:25:45.564Z,6.57
2018-09-17T11:28:13.523Z,7.53
2018-09-17T11:30:41.469Z,6.43
2018-09-17T11:33:08.465Z,6.57
2018-09-17T11:35:35.546Z,7.03
2018-09-17T11:38:02.571Z,7.53
2018-09-17T11:40:29.559Z,6.53
2018-09-17T11:42:56.547Z,7.00
2018-09-17T11:48:02.062Z,7.00
2018-09-17T11:50:29.087Z,6.17
2018-09-17T11:52:56.933Z,6.73
2018-09-17T11:55:23.925Z,6.87
2018-09-17T11:57:50.959Z,6.20
2018-09-17T12:00:18.886Z,6.47
2018-09-17T12:02:45.883Z,6.57
2018-09-17T12:05:12.924Z,6.80
2018-09-17T12:07:39.904Z,6.07
2018-09-17T12:10:06.896Z,6.60
2018-09-17T12:12:33.922Z,6.23
2018-09-17T12:15:00.906Z,6.23
2018-09-17T12:17:27.891Z,5.90
2018-09-17T12:19:55.014Z,6.93
2018-09-17T12:22:21.994Z,5.93
2018-09-17T12:24:48.981Z,6.53
2018-09-17T12:27:15.997Z,5.47
2018-09-17T12:29:42.991Z,5.00
2018-09-17T12:32:09.978Z,5.37
2018-09-17T12:34:37.029Z,5.23
2018-09-17T12:37:04.093Z,5.87
2018-09-17T12:39:31.913Z,5.47
2018-09-17T12:41:58.932Z,6.20
2018-09-17T12:44:26.755Z,7.40
2018-09-17T12:46:53.749Z,6.87
2018-09-17T12:49:21.722Z,6.93
2018-09-17T12:54:30.149Z,7.30
2018-09-17T12:56:58.093Z,6.50
2018-09-17T12:59:25.992Z,6.67
2018-09-17T13:01:53.056Z,6.20
2018-09-17T13:04:21.008Z,7.20
2018-09-17T13:06:48.007Z,6.57
2018-09-17T13:09:15.875Z,6.97
2018-09-17T13:11:42.866Z,6.83
2018-09-17T13:14:09.860Z,6.33
2018-09-17T13:16:36.886Z,6.00
2018-09-17T13:19:03.873Z,5.67
2018-09-17T13:21:30.864Z,6.07
2018-09-17T13:23:57.888Z,5.20
2018-09-17T13:26:24.891Z,5.40
2018-09-17T13:28:51.913Z,5.40
2018-09-17T13:31:18.926Z,5.20
2018-09-17T13:33:45.916Z,4.67
2018-09-17T13:36:13.764Z,5.37
2018-09-17T13:38:40.778Z,5.27
2018-09-17T13:41:07.775Z,5.20
2018-09-17T13:43:35.759Z,5.07
2018-09-17T13:46:02.778Z,4.10
2018-09-17T13:48:29.775Z,4.70
2018-09-17T13:50:56.772Z,4.40
2018-09-17T13:53:23.873Z,4.73
2018-09-17T13:55:50.798Z,4.00
2018-09-17T14:00:57.240Z,4.97
2018-09-17T14:03:24.243Z,4.40
2018-09-17T14:05:51.258Z,4.77
2018-09-17T14:08:18.252Z,4.60
2018-09-17T14:10:45.272Z,5.33
2018-09-17T14:13:12.256Z,4.43
2018-09-17T14:15:40.234Z,4.53
2018-09-17T14:18:07.221Z,4.03
2018-09-17T14:20:34.219Z,3.80
2018-09-17T14:23:01.242Z,4.03
2018-09-17T14:25:28.230Z,3.80
2018-09-17T14:27:55.246Z,4.67
2018-09-17T14:30:22.293Z,3.70
2018-09-17T14:32:49.333Z,4.70
2018-09-17T14:35:16.329Z,4.27
2018-09-17T14:37:44.217Z,4.20
2018-09-17T14:40:11.294Z,4.20
2018-09-17T14:42:39.127Z,4.70
2018-09-17T14:45:06.124Z,4.53
2018-09-17T14:47:33.153Z,4.40
2018-09-17T14:50:00.180Z,4.67
2018-09-17T14:52:27.229Z,4.10
2018-09-17T14:54:54.197Z,4.37
2018-09-17T14:59:59.339Z,4.47
2018-09-17T15:02:26.345Z,4.70
2018-09-17T15:04:53.333Z,4.77
2018-09-17T15:07:20.354Z,5.03
2018-09-17T15:09:47.363Z,4.40
2018-09-17T15:12:14.359Z,4.63
2018-09-17T15:14:41.397Z,4.60
2018-09-17T15:17:08.390Z,4.60
2018-09-17T15:19:35.398Z,4.20
2018-09-17T15:22:02.401Z,4.60
2018-09-17T15:24:30.214Z,4.37
2018-09-17T15:26:57.230Z,4.57
2018-09-17T15:29:24.260Z,4.63
2018-09-17T15:31:51.298Z,5.20
2018-09-17T15:34:18.374Z,4.40
2018-09-17T15:36:45.358Z,4.90
2018-09-17T15:39:12.364Z,4.80
2018-09-17T15:41:39.478Z,5.00
2018-09-17T15:44:06.597Z,4.80
2018-09-17T15:46:33.566Z,4.93
2018-09-17T15:49:00.562Z,5.13
2018-09-17T15:51:28.613Z,4.63
2018-09-17T15:53:56.552Z,4.93
2018-09-17T15:56:23.666Z,5.03
2018-09-17T15:58:50.575Z,5.40
2018-09-17T16:01:18.488Z,5.23
2018-09-17T16:03:45.486Z,5.30
2018-09-17T16:06:12.581Z,5.50
2018-09-17T16:08:39.631Z,5.03
2018-09-17T16:11:06.575Z,5.20
2018-09-17T16:13:34.464Z,5.00
2018-09-17T16:18:40.847Z,5.20
2018-09-17T16:21:07.868Z,5.23
2018-09-17T16:23:34.962Z,5.30
2018-09-17T16:26:01.983Z,5.23
2018-09-17T16:28:28.990Z,5.63
2018-09-17T16:30:55.976Z,5.50
2018-09-17T16:33:23.055Z,5.70
2018-09-17T16:35:49.989Z,5.87
2018-09-17T16:38:17.010Z,5.30
2018-09-17T16:40:44.086Z,4.70
2018-09-17T16:43:11.024Z,5.43
2018-09-17T16:45:38.018Z,5.30
2018-09-17T16:48:05.051Z,5.53
2018-09-17T16:50:32.993Z,5.83
2018-09-17T16:53:00.015Z,5.40
2018-09-17T16:55:27.905Z,5.47
2018-09-17T16:57:54.893Z,5.43
2018-09-17T17:00:21.891Z,5.37
2018-09-17T17:02:48.917Z,5.13
2018-09-17T17:05:15.970Z,5.57
2018-09-17T17:07:42.902Z,6.10
2018-09-17T17:10:09.959Z,5.27
2018-09-17T17:12:36.913Z,5.23
2018-09-17T17:15:03.903Z,5.87
2018-09-17T17:17:31.797Z,6.00
2018-09-17T17:19:58.800Z,6.53
2018-09-17T17:22:25.803Z,5.93
2018-09-17T17:24:53.627Z,6.37
2018-09-17T17:27:21.575Z,5.90
2018-09-17T17:29:48.575Z,6.30
2018-09-17T17:32:15.597Z,5.43
2018-09-17T17:34:42.586Z,5.93
2018-09-17T17:39:49.122Z,6.93
2018-09-17T17:42:15.965Z,7.33
2018-09-17T17:44:43.895Z,6.60
2018-09-17T17:47:11.301Z,6.13
2018-09-17T17:49:39.163Z,6.63
2018-09-17T17:52:06.155Z,5.57
2018-09-17T17:54:33.234Z,6.33
2018-09-17T17:57:00.176Z,6.53
2018-09-17T17:59:27.171Z,6.43
2018-09-17T18:01:54.203Z,6.60
2018-09-17T18:04:21.973Z,6.80
2018-09-17T18:06:48.996Z,6.47
2018-09-17T18:09:16.005Z,5.93
2018-09-17T18:11:42.960Z,6.27
2018-09-17T18:14:09.951Z,7.00
2018-09-17T18:16:37.798Z,6.33
2018-09-17T18:19:04.793Z,6.67
2018-09-17T18:21:31.834Z,6.83
2018-09-17T18:23:59.679Z,6.70
2018-09-17T18:26:27.607Z,6.03
2018-09-17T18:28:54.601Z,7.57
2018-09-17T18:31:22.570Z,6.57
2018-09-17T18:33:49.555Z,7.20
2018-09-17T18:36:16.545Z,6.90
2018-09-17T18:38:43.575Z,7.30
2018-09-17T18:41:10.600Z,6.67
2018-09-17T18:43:37.568Z,6.27
2018-09-17T18:46:05.227Z,6.07
2018-09-17T18:48:32.358Z,6.93
2018-09-17T18:50:59.324Z,6.33
2018-09-17T18:53:26.310Z,7.20
2018-09-17T18:55:53.321Z,6.60
2018-09-17T19:01:00.837Z,6.85
2018-09-17T19:03:27.840Z,6.97
2018-09-17T19:05:55.833Z,7.23
2018-09-17T19:08:22.867Z,6.70
2018-09-17T19:10:50.748Z,6.73
2018-09-17T19:13:17.847Z,6.97
2018-09-17T19:15:44.872Z,6.67
2018-09-17T19:18:11.906Z,6.67
2018-09-17T19:20:39.974Z,6.60
2018-09-17T19:23:06.834Z,6.80
2018-09-17T19:25:33.845Z,6.50
2018-09-17T19:28:00.922Z,6.80
2018-09-17T19:30:27.890Z,7.30
2018-09-17T19:32:54.939Z,7.07
2018-09-17T19:35:21.907Z,7.33
2018-09-17T19:37:49.956Z,7.23
2018-09-17T19:40:17.571Z,6.13
2018-09-17T19:42:44.571Z,6.53
2018-09-17T19:45:11.548Z,6.87
2018-09-17T19:47:39.654Z,6.40
2018-09-17T19:50:06.790Z,6.80
2018-09-17T19:52:33.776Z,6.63
2018-09-17T19:55:00.765Z,7.00
2018-09-17T19:57:28.711Z,7.13
2018-09-17T19:59:55.753Z,6.87
2018-09-17T20:05:01.688Z,7.82
2018-09-17T20:07:28.710Z,6.70
2018-09-17T20:09:55.711Z,6.60
2018-09-17T20:12:22.743Z,6.87
2018-09-17T20:14:49.747Z,6.83
2018-09-17T20:17:16.747Z,7.00
2018-09-17T20:22:22.427Z,7.40
2018-09-17T20:24:49.522Z,7.53
2018-09-17T20:27:16.515Z,7.27
2018-09-17T20:29:43.499Z,7.40
2018-09-17T20:32:10.550Z,7.43
2018-09-17T20:34:37.567Z,7.50
2018-09-17T20:37:04.581Z,7.37
2018-09-17T20:39:31.616Z,7.80
2018-09-17T20:41:58.619Z,7.47
2018-09-17T20:44:26.325Z,7.97
2018-09-17T20:46:53.367Z,7.90
2018-09-17T20:49:20.436Z,7.23
2018-09-17T20:51:47.357Z,6.87
2018-09-17T20:54:14.406Z,6.63
2018-09-17T20:56:41.569Z,6.80
2018-09-17T20:59:08.412Z,7.30
2018-09-17T21:01:36.005Z,7.47
2018-09-17T21:04:03.039Z,6.60
2018-09-17T21:06:30.331Z,7.17
2018-09-17T21:08:57.343Z,7.83
2018-09-17T21:11:25.179Z,7.93
2018-09-17T21:13:52.163Z,7.70
2018-09-17T21:16:19.196Z,7.23
2018-09-17T21:18:46.264Z,7.43
2018-09-17T21:21:13.194Z,8.20
2018-09-17T21:23:40.220Z,7.80
2018-09-17T21:26:07.216Z,8.40
2018-09-17T21:28:34.220Z,7.67
2018-09-17T21:31:01.295Z,7.90
2018-09-17T21:33:28.289Z,7.73
2018-09-17T21:35:55.599Z,8.23
2018-09-17T21:38:22.648Z,7.73
2018-09-17T21:40:49.702Z,7.77
2018-09-17T21:45:55.205Z,8.43
2018-09-17T21:48:22.206Z,7.20
2018-09-17T21:50:50.090Z,7.57
2018-09-17T21:53:17.159Z,8.33
2018-09-17T21:55:44.172Z,8.00
2018-09-17T21:58:11.195Z,7.90
2018-09-17T22:00:38.226Z,7.50
2018-09-17T22:03:05.226Z,7.83
2018-09-17T22:05:33.134Z,8.07
2018-09-17T22:08:01.157Z,7.73
2018-09-17T22:10:28.237Z,8.63
2018-09-17T22:12:55.250Z,8.87
2018-09-17T22:15:22.825Z,7.73
2018-09-17T22:17:49.848Z,8.97
2018-09-17T22:20:16.858Z,8.60
2018-09-17T22:22:43.897Z,8.03
2018-09-17T22:25:10.896Z,8.53
2018-09-17T22:27:38.716Z,8.43
2018-09-17T22:30:05.765Z,8.07
2018-09-17T22:32:33.613Z,7.90
2018-09-17T22:35:01.460Z,8.93
2018-09-17T22:37:28.504Z,9.00
2018-09-17T22:39:56.459Z,8.13
2018-09-17T22:42:23.510Z,8.33
2018-09-17T22:44:51.374Z,7.90
2018-09-17T22:47:18.368Z,7.70
2018-09-17T22:49:45.382Z,7.77
2018-09-17T22:52:13.300Z,7.97
2018-09-17T22:54:40.317Z,8.80
2018-09-17T22:57:07.334Z,8.47
2018-09-17T22:59:34.377Z,7.90
2018-09-17T23:02:01.383Z,8.13
2018-09-17T23:04:29.344Z,8.20
2018-09-17T23:06:56.390Z,7.97
2018-09-17T23:12:03.935Z,9.15
2018-09-17T23:14:31.777Z,8.80
2018-09-17T23:16:58.787Z,8.23
2018-09-17T23:19:25.841Z,8.90
2018-09-17T23:21:53.790Z,8.47
2018-09-17T23:24:20.790Z,8.87
2018-09-17T23:26:47.832Z,8.60
2018-09-17T23:29:15.809Z,8.57
2018-09-17T23:31:43.403Z,8.67
2018-09-17T23:34:10.445Z,9.00
2018-09-17T23:36:37.444Z,8.07
2018-09-17T23:39:04.446Z,9.13
2018-09-17T23:41:31.487Z,8.20
2018-09-17T23:43:58.497Z,8.53
2018-09-17T23:46:25.505Z,8.97
2018-09-17T23:48:52.548Z,7.93
2018-09-17T23:51:20.471Z,8.07
2018-09-17T23:53:47.482Z,8.37
2018-09-17T23:56:14.529Z,9.20
2018-09-17T23:58:42.400Z,9.33
